Time;durP1;ratioP1;P1;durP2;ratioP2;P2;SDS_P1;SDS_P2;PMS_P1;PMS_P2;Temp;Humidity;BMP_temperature;BMP_pressure;BME280_temperature;BME280_humidity;BME280_pressure;Samples;Min_cycle;Max_cycle;Signal;HPM_P1;HPM_P2
2023/12/19 00:01:21;;;;;;;130.67;56.73;;;;;;;;;;4403250;32;319467;-76
2023/12/19 00:03:47;;;;;;;126.97;55.73;;;;;;;;;;4412505;32;319542;-77
2023/12/19 00:06:14;;;;;;;127.60;56.27;;;;;;;;;;4400468;32;319979;-76
2023/12/19 00:08:41;;;;;;;127.53;59.27;;;;;;;;;;4412640;32;319568;-76
2023/12/19 00:11:08;;;;;;;136.67;59.53;;;;;;;;;;4402323;32;345813;-76
2023/12/19 00:13:35;;;;;;;116.03;57.90;;;;;;;;;;4414163;32;319175;-76
2023/12/19 00:16:03;;;;;;;107.33;55.87;;;;;;;;;;4403640;32;319489;-75
2023/12/19 00:18:31;;;;;;;125.03;57.47;;;;;;;;;;4411950;32;319274;-76
2023/12/19 00:20:58;;;;;;;150.87;60.73;;;;;;;;;;4403900;32;319349;-75
2023/12/19 00:23:30;;;;;;;127.53;57.00;;;;;;;;;;4413792;32;319017;-75
2023/12/19 00:25:57;;;;;;;143.70;57.80;;;;;;;;;;4403654;32;319635;-76
2023/12/19 00:28:24;;;;;;;131.30;58.53;;;;;;;;;;4411034;32;319451;-76
2023/12/19 00:30:50;;;;;;;127.30;59.13;;;;;;;;;;4412758;32;318603;-76
2023/12/19 00:33:17;;;;;;;146.27;61.93;;;;;;;;;;4403154;32;343569;-77
2023/12/19 00:35:46;;;;;;;140.97;61.00;;;;;;;;;;4413785;32;318672;-76
2023/12/19 00:38:13;;;;;;;135.13;56.37;;;;;;;;;;4401123;32;319256;-75
2023/12/19 00:40:40;;;;;;;149.33;56.60;;;;;;;;;;4411680;32;318689;-75
2023/12/19 00:43:06;;;;;;;118.33;56.20;;;;;;;;;;4404323;32;319678;-77
2023/12/19 00:45:33;;;;;;;147.73;56.73;;;;;;;;;;4415255;32;328461;-75
2023/12/19 00:48:03;;;;;;;124.90;56.03;;;;;;;;;;4406745;32;319712;-76
2023/12/19 00:50:30;;;;;;;128.30;52.57;;;;;;;;;;4414645;32;319689;-75
2023/12/19 00:52:58;;;;;;;106.13;52.23;;;;;;;;;;4406404;32;319630;-75
2023/12/19 00:55:25;;;;;;;126.20;58.23;;;;;;;;;;4416568;32;318815;-76
2023/12/19 00:57:51;;;;;;;145.50;57.83;;;;;;;;;;4414842;32;319181;-75
2023/12/19 01:00:19;;;;;;;128.50;56.80;;;;;;;;;;4403349;32;319145;-75
2023/12/19 01:02:46;;;;;;;122.27;54.00;;;;;;;;;;4415818;32;319331;-75
2023/12/19 01:05:12;;;;;;;118.10;55.90;;;;;;;;;;4405306;32;319918;-74
2023/12/19 01:07:39;;;;;;;148.70;58.67;;;;;;;;;;4415247;32;318930;-75
2023/12/19 01:10:08;;;;;;;124.53;56.53;;;;;;;;;;4402864;32;319619;-74
2023/12/19 01:12:35;;;;;;;128.53;57.97;;;;;;;;;;4415197;32;318806;-74
2023/12/19 01:15:02;;;;;;;131.10;58.23;;;;;;;;;;4406673;32;319701;-76
2023/12/19 01:17:29;;;;;;;138.37;63.07;;;;;;;;;;4415134;32;319338;-76
2023/12/19 01:19:56;;;;;;;140.73;62.20;;;;;;;;;;4406210;32;327170;-74
2023/12/19 01:22:23;;;;;;;149.80;61.67;;;;;;;;;;4413949;32;319843;-76
2023/12/19 01:24:50;;;;;;;132.37;59.53;;;;;;;;;;4415132;32;318280;-76
2023/12/19 01:27:18;;;;;;;133.87;57.17;;;;;;;;;;4404907;32;319596;-76
2023/12/19 01:29:45;;;;;;;140.33;61.63;;;;;;;;;;4414874;32;319641;-76
2023/12/19 01:32:11;;;;;;;154.93;63.70;;;;;;;;;;4402656;32;319559;-76
2023/12/19 01:34:38;;;;;;;145.33;60.87;;;;;;;;;;4414621;32;322359;-76
2023/12/19 01:37:06;;;;;;;137.20;57.73;;;;;;;;;;4404519;32;343632;-76
2023/12/19 01:39:35;;;;;;;130.53;59.17;;;;;;;;;;4414595;32;319916;-76
2023/12/19 01:42:02;;;;;;;119.30;55.83;;;;;;;;;;4403530;32;319587;-76
2023/12/19 01:44:32;;;;;;;127.90;57.30;;;;;;;;;;4413937;32;319680;-77
2023/12/19 01:46:59;;;;;;;115.27;55.07;;;;;;;;;;4405242;32;319529;-76
2023/12/19 01:49:25;;;;;;;142.63;57.23;;;;;;;;;;4414529;32;319596;-75
2023/12/19 01:51:52;;;;;;;116.83;55.43;;;;;;;;;;4414368;32;318721;-75
2023/12/19 01:54:20;;;;;;;109.23;54.20;;;;;;;;;;4402785;32;319558;-75
2023/12/19 01:56:47;;;;;;;110.50;51.83;;;;;;;;;;4415150;32;318793;-76
2023/12/19 01:59:15;;;;;;;119.17;52.33;;;;;;;;;;4405515;32;319457;-76
2023/12/19 02:01:44;;;;;;;111.33;53.60;;;;;;;;;;4413713;32;319614;-76
2023/12/19 02:04:11;;;;;;;121.90;51.60;;;;;;;;;;4402308;32;358925;-75
2023/12/19 02:06:38;;;;;;;107.57;50.47;;;;;;;;;;4413443;32;324641;-76
2023/12/19 02:09:07;;;;;;;114.43;47.50;;;;;;;;;;4403058;32;319188;-76
2023/12/19 02:11:33;;;;;;;121.63;48.43;;;;;;;;;;4413968;32;318921;-75
2023/12/19 02:14:00;;;;;;;101.17;46.63;;;;;;;;;;4402813;32;319374;-75
2023/12/19 02:16:27;;;;;;;108.33;48.50;;;;;;;;;;4412308;32;319363;-76
2023/12/19 02:19:06;;;;;;;122.90;47.97;;;;;;;;;;4414882;32;318501;-75
2023/12/19 02:21:33;;;;;;;101.23;46.63;;;;;;;;;;4401580;32;417365;-76
2023/12/19 02:24:01;;;;;;;94.90;45.57;;;;;;;;;;4403742;32;319614;-75
2023/12/19 02:26:28;;;;;;;106.07;46.80;;;;;;;;;;4412797;32;318518;-75
2023/12/19 02:28:55;;;;;;;115.33;47.23;;;;;;;;;;4415160;32;319063;-76
2023/12/19 02:31:22;;;;;;;121.30;46.80;;;;;;;;;;4401333;32;419041;-76
2023/12/19 02:33:49;;;;;;;126.97;51.93;;;;;;;;;;4413455;32;318985;-76
2023/12/19 02:36:16;;;;;;;104.03;46.57;;;;;;;;;;4394652;32;319659;-75
2023/12/19 02:38:43;;;;;;;114.57;47.90;;;;;;;;;;4423868;32;318853;-76
2023/12/19 02:41:12;;;;;;;108.53;47.53;;;;;;;;;;4404372;32;319354;-74
2023/12/19 02:43:38;;;;;;;106.73;50.83;;;;;;;;;;4413107;32;329610;-76
2023/12/19 02:46:06;;;;;;;100.70;45.30;;;;;;;;;;4404142;32;319625;-75
2023/12/19 02:48:34;;;;;;;106.30;46.20;;;;;;;;;;4414401;32;319550;-76
2023/12/19 02:51:00;;;;;;;103.10;44.43;;;;;;;;;;4402015;32;319823;-75
2023/12/19 02:53:33;;;;;;;89.87;43.00;;;;;;;;;;4414254;32;319099;-76
2023/12/19 02:56:00;;;;;;;79.87;40.17;;;;;;;;;;4403752;32;318569;-74
2023/12/19 02:58:28;;;;;;;79.03;36.67;;;;;;;;;;4410678;32;318547;-76
2023/12/19 03:00:55;;;;;;;89.73;38.73;;;;;;;;;;4413776;32;317803;-74
2023/12/19 03:03:22;;;;;;;80.27;38.07;;;;;;;;;;4399058;32;419102;-75
2023/12/19 03:05:48;;;;;;;76.97;36.43;;;;;;;;;;4412631;32;318446;-75
2023/12/19 03:08:15;;;;;;;82.20;39.87;;;;;;;;;;4401087;32;318315;-75
2023/12/19 03:10:42;;;;;;;96.03;36.73;;;;;;;;;;4414556;32;317845;-75
2023/12/19 03:13:09;;;;;;;81.03;38.93;;;;;;;;;;4404255;32;317806;-75
2023/12/19 03:15:37;;;;;;;86.17;39.33;;;;;;;;;;4414280;32;318526;-73
2023/12/19 03:18:04;;;;;;;89.53;40.57;;;;;;;;;;4404005;32;318559;-74
2023/12/19 03:20:31;;;;;;;72.10;37.00;;;;;;;;;;4414255;32;318244;-75
2023/12/19 03:22:58;;;;;;;90.47;38.13;;;;;;;;;;4404206;32;318474;-73
2023/12/19 03:25:25;;;;;;;80.27;37.83;;;;;;;;;;4414441;32;318659;-73
2023/12/19 03:27:51;;;;;;;77.30;38.30;;;;;;;;;;4412661;32;318446;-75
2023/12/19 03:30:18;;;;;;;86.13;38.43;;;;;;;;;;4401854;32;318297;-76
2023/12/19 03:32:46;;;;;;;82.97;38.37;;;;;;;;;;4414034;32;317652;-75
2023/12/19 03:35:13;;;;;;;85.23;39.73;;;;;;;;;;4404442;32;318739;-75
2023/12/19 03:37:40;;;;;;;97.80;41.57;;;;;;;;;;4413715;32;318294;-76
2023/12/19 03:40:09;;;;;;;84.53;38.43;;;;;;;;;;4400837;32;318520;-74
2023/12/19 03:42:36;;;;;;;84.97;39.13;;;;;;;;;;4413985;32;317669;-75
2023/12/19 03:45:03;;;;;;;89.10;41.00;;;;;;;;;;4403224;32;318480;-74
2023/12/19 03:47:30;;;;;;;94.63;42.80;;;;;;;;;;4413574;32;318588;-75
2023/12/19 03:49:58;;;;;;;98.03;42.53;;;;;;;;;;4403809;32;318787;-74
2023/12/19 03:52:25;;;;;;;90.73;42.27;;;;;;;;;;4411482;32;318625;-75
2023/12/19 03:54:52;;;;;;;85.73;40.70;;;;;;;;;;4412679;32;318582;-75
2023/12/19 03:57:19;;;;;;;88.67;39.80;;;;;;;;;;4403194;32;318485;-76
2023/12/19 03:59:46;;;;;;;91.13;39.63;;;;;;;;;;4413788;32;319903;-76
2023/12/19 04:02:12;;;;;;;100.40;41.43;;;;;;;;;;4400522;32;337838;-74
2023/12/19 04:04:39;;;;;;;95.70;43.53;;;;;;;;;;4413980;32;319764;-76
2023/12/19 04:07:08;;;;;;;100.77;43.17;;;;;;;;;;4404169;32;318902;-75
2023/12/19 04:09:34;;;;;;;87.67;40.17;;;;;;;;;;4413936;32;320096;-75
2023/12/19 04:12:02;;;;;;;89.83;40.90;;;;;;;;;;4403686;32;318480;-76
2023/12/19 04:14:30;;;;;;;81.33;37.50;;;;;;;;;;4411887;32;319020;-76
2023/12/19 04:16:57;;;;;;;84.20;37.90;;;;;;;;;;4402348;32;318716;-75
2023/12/19 04:19:24;;;;;;;101.07;39.17;;;;;;;;;;4415929;32;349291;-75
2023/12/19 04:21:51;;;;;;;76.10;38.53;;;;;;;;;;4415008;32;336093;-76
2023/12/19 04:24:20;;;;;;;75.43;35.60;;;;;;;;;;4402419;32;345808;-77
2023/12/19 04:26:47;;;;;;;76.07;36.33;;;;;;;;;;4416796;32;318743;-75
2023/12/19 04:29:14;;;;;;;94.10;39.90;;;;;;;;;;4406875;32;318037;-76
2023/12/19 04:31:41;;;;;;;87.03;41.03;;;;;;;;;;4416220;32;318422;-75
2023/12/19 04:34:09;;;;;;;84.03;40.07;;;;;;;;;;4404011;32;318698;-73
2023/12/19 04:36:35;;;;;;;86.10;39.73;;;;;;;;;;4416862;32;318546;-75
2023/12/19 04:39:03;;;;;;;82.97;38.10;;;;;;;;;;4406080;32;318546;-74
2023/12/19 04:41:31;;;;;;;78.70;38.30;;;;;;;;;;4415159;32;318745;-75
2023/12/19 04:43:58;;;;;;;71.20;32.60;;;;;;;;;;4406464;32;318595;-77
2023/12/19 04:46:25;;;;;;;72.60;34.07;;;;;;;;;;4411711;32;318957;-75
2023/12/19 04:48:52;;;;;;;77.33;33.20;;;;;;;;;;4414354;32;355977;-74
2023/12/19 04:51:19;;;;;;;76.70;38.47;;;;;;;;;;4406141;32;318630;-76
2023/12/19 04:53:48;;;;;;;91.90;41.23;;;;;;;;;;4415980;32;318852;-74
2023/12/19 04:56:14;;;;;;;87.67;38.80;;;;;;;;;;4403107;32;318164;-75
2023/12/19 04:58:44;;;;;;;95.40;42.40;;;;;;;;;;4416387;32;317747;-75
2023/12/19 05:01:12;;;;;;;99.10;40.47;;;;;;;;;;4404487;32;318746;-76
2023/12/19 05:03:40;;;;;;;98.93;42.70;;;;;;;;;;4415699;32;318050;-76
2023/12/19 05:06:08;;;;;;;100.23;41.43;;;;;;;;;;4405954;32;318186;-74
2023/12/19 05:08:35;;;;;;;80.53;38.67;;;;;;;;;;4416158;32;319597;-75
2023/12/19 05:11:02;;;;;;;83.90;39.27;;;;;;;;;;4405667;32;318542;-75
2023/12/19 05:13:29;;;;;;;87.27;37.67;;;;;;;;;;4415961;32;318585;-74
2023/12/19 05:15:57;;;;;;;76.60;37.50;;;;;;;;;;4407039;32;317756;-73
2023/12/19 05:18:24;;;;;;;96.50;38.90;;;;;;;;;;4413670;32;318431;-75
2023/12/19 05:20:51;;;;;;;85.90;40.63;;;;;;;;;;4415559;32;318947;-77
2023/12/19 05:23:18;;;;;;;105.20;43.80;;;;;;;;;;4404703;32;317729;-75
2023/12/19 05:25:45;;;;;;;94.77;42.50;;;;;;;;;;4414707;32;319583;-75
2023/12/19 05:28:12;;;;;;;88.77;40.37;;;;;;;;;;4401668;32;349635;-73
2023/12/19 05:30:38;;;;;;;91.87;42.60;;;;;;;;;;4415169;32;318668;-75
2023/12/19 05:33:07;;;;;;;91.70;43.37;;;;;;;;;;4405819;32;318605;-76
2023/12/19 05:35:35;;;;;;;89.37;43.07;;;;;;;;;;4415849;32;319938;-75
2023/12/19 05:38:02;;;;;;;90.97;39.17;;;;;;;;;;4404375;32;318536;-75
2023/12/19 05:40:29;;;;;;;101.00;44.03;;;;;;;;;;4413261;32;317777;-76
2023/12/19 05:42:58;;;;;;;89.33;42.93;;;;;;;;;;4406912;32;319423;-74
2023/12/19 05:45:24;;;;;;;98.77;44.17;;;;;;;;;;4415519;32;318761;-76
2023/12/19 05:47:51;;;;;;;101.00;45.17;;;;;;;;;;4415309;32;318427;-76
2023/12/19 05:50:19;;;;;;;97.70;43.60;;;;;;;;;;4402768;32;319643;-75
2023/12/19 05:52:46;;;;;;;85.93;43.67;;;;;;;;;;4415380;32;318622;-76
2023/12/19 05:55:13;;;;;;;84.10;43.60;;;;;;;;;;4404536;32;318484;-74
2023/12/19 05:57:40;;;;;;;99.00;43.57;;;;;;;;;;4415234;32;318467;-74
2023/12/19 06:00:08;;;;;;;97.53;45.17;;;;;;;;;;4402042;32;318561;-74
2023/12/19 06:02:37;;;;;;;97.80;42.57;;;;;;;;;;4414347;32;318400;-76
2023/12/19 06:05:07;;;;;;;86.80;43.67;;;;;;;;;;4405618;32;318611;-75
2023/12/19 06:07:36;;;;;;;105.67;44.13;;;;;;;;;;4413913;32;318081;-75
2023/12/19 06:10:04;;;;;;;89.83;42.33;;;;;;;;;;4405559;32;319616;-75
2023/12/19 06:12:32;;;;;;;90.77;46.80;;;;;;;;;;4412486;32;318637;-74
2023/12/19 06:14:59;;;;;;;92.60;44.53;;;;;;;;;;4404368;32;357807;-75
2023/12/19 06:17:25;;;;;;;107.17;48.83;;;;;;;;;;4415144;32;318357;-75
2023/12/19 06:19:52;;;;;;;87.77;43.80;;;;;;;;;;4415199;32;318811;-77
2023/12/19 06:22:19;;;;;;;96.97;45.07;;;;;;;;;;4402652;32;318592;-77
2023/12/19 06:24:50;;;;;;;120.10;53.37;;;;;;;;;;4413562;32;318087;-76
2023/12/19 06:27:17;;;;;;;110.37;48.67;;;;;;;;;;4404118;32;318778;-76
2023/12/19 06:29:43;;;;;;;108.67;48.13;;;;;;;;;;4414805;32;319481;-76
2023/12/19 06:32:10;;;;;;;99.13;46.53;;;;;;;;;;4402040;32;319625;-74
2023/12/19 06:34:37;;;;;;;92.70;42.93;;;;;;;;;;4414645;32;318339;-73
2023/12/19 06:37:05;;;;;;;81.47;41.43;;;;;;;;;;4404407;32;317972;-74
2023/12/19 06:39:32;;;;;;;87.60;44.03;;;;;;;;;;4413208;32;317665;-75
2023/12/19 06:42:00;;;;;;;93.37;46.13;;;;;;;;;;4404096;32;318052;-74
2023/12/19 06:44:27;;;;;;;91.97;41.60;;;;;;;;;;4413104;32;318825;-76
2023/12/19 06:46:53;;;;;;;97.37;44.33;;;;;;;;;;4414684;32;318530;-75
2023/12/19 06:49:20;;;;;;;112.93;52.33;;;;;;;;;;4404576;32;318628;-74
2023/12/19 06:51:50;;;;;;;127.60;51.27;;;;;;;;;;4414339;32;319678;-75
2023/12/19 06:54:17;;;;;;;150.03;59.20;;;;;;;;;;4402518;32;319515;-75
2023/12/19 06:56:43;;;;;;;124.33;54.60;;;;;;;;;;4412562;32;318757;-73
2023/12/19 06:59:12;;;;;;;94.90;44.87;;;;;;;;;;4404307;32;318870;-74
2023/12/19 07:01:40;;;;;;;90.23;46.47;;;;;;;;;;4414723;32;318571;-76
2023/12/19 07:04:07;;;;;;;88.70;41.93;;;;;;;;;;4401913;32;324752;-74
2023/12/19 07:06:34;;;;;;;72.20;37.37;;;;;;;;;;4414197;32;318813;-75
2023/12/19 07:09:01;;;;;;;61.63;30.77;;;;;;;;;;4404932;32;318439;-74
2023/12/19 07:11:28;;;;;;;75.47;36.47;;;;;;;;;;4414245;32;318326;-75
2023/12/19 07:13:55;;;;;;;71.70;35.53;;;;;;;;;;4412482;32;318330;-77
2023/12/19 07:16:25;;;;;;;77.40;37.30;;;;;;;;;;4397118;32;417421;-75
2023/12/19 07:18:52;;;;;;;74.03;38.53;;;;;;;;;;4412187;32;318483;-78
2023/12/19 07:21:23;;;;;;;63.20;33.07;;;;;;;;;;4402533;32;340365;-77
2023/12/19 07:23:50;;;;;;;70.90;35.77;;;;;;;;;;4414189;32;318585;-79
2023/12/19 07:26:26;;;;;;;68.67;33.30;;;;;;;;;;4401616;32;318585;-78
2023/12/19 07:28:53;;;;;;;77.77;35.67;;;;;;;;;;4413620;32;318599;-78
2023/12/19 07:31:25;;;;;;;67.43;34.83;;;;;;;;;;4402932;32;318790;-76
2023/12/19 07:33:56;;;;;;;72.97;38.73;;;;;;;;;;4414499;32;318606;-74
2023/12/19 07:36:23;;;;;;;94.40;44.40;;;;;;;;;;4397406;32;419170;-79
2023/12/19 07:38:50;;;;;;;88.17;45.87;;;;;;;;;;4413263;32;318714;-76
2023/12/19 07:41:17;;;;;;;105.30;49.03;;;;;;;;;;4402702;32;318468;-76
2023/12/19 07:43:44;;;;;;;111.70;49.90;;;;;;;;;;4413885;32;319681;-76
2023/12/19 07:46:11;;;;;;;116.43;57.13;;;;;;;;;;4401145;32;319672;-76
2023/12/19 07:48:40;;;;;;;99.90;48.57;;;;;;;;;;4413822;32;319652;-75
2023/12/19 07:51:07;;;;;;;92.60;46.93;;;;;;;;;;4401565;32;318694;-75
2023/12/19 07:53:34;;;;;;;108.57;52.30;;;;;;;;;;4411645;32;317627;-75
2023/12/19 07:56:04;;;;;;;121.80;57.50;;;;;;;;;;4403967;32;319150;-77
2023/12/19 07:58:31;;;;;;;120.17;58.30;;;;;;;;;;4412533;32;319682;-78
2023/12/19 08:00:58;;;;;;;114.67;53.63;;;;;;;;;;4402706;32;319491;-76
2023/12/19 08:03:25;;;;;;;122.50;54.23;;;;;;;;;;4411962;32;319482;-75
2023/12/19 08:05:56;;;;;;;127.77;54.70;;;;;;;;;;4412360;32;319795;-75
2023/12/19 08:08:23;;;;;;;110.63;54.80;;;;;;;;;;4398812;32;418674;-76
2023/12/19 08:10:50;;;;;;;105.93;51.43;;;;;;;;;;4412330;32;319500;-75
2023/12/19 08:13:17;;;;;;;111.67;53.27;;;;;;;;;;4402837;32;319715;-76
2023/12/19 08:15:44;;;;;;;121.30;55.83;;;;;;;;;;4411594;32;342684;-76
2023/12/19 08:18:13;;;;;;;114.67;52.53;;;;;;;;;;4400695;32;319453;-74
2023/12/19 08:20:39;;;;;;;107.33;48.07;;;;;;;;;;4413478;32;319342;-76
2023/12/19 08:23:08;;;;;;;103.87;49.10;;;;;;;;;;4403548;32;319484;-75
2023/12/19 08:25:35;;;;;;;104.77;49.93;;;;;;;;;;4412505;32;356158;-76
2023/12/19 08:28:02;;;;;;;97.27;48.87;;;;;;;;;;4403756;32;319408;-76
2023/12/19 08:30:30;;;;;;;104.93;51.10;;;;;;;;;;4409663;32;317700;-75
2023/12/19 08:32:57;;;;;;;107.27;58.67;;;;;;;;;;4403136;32;319276;-73
2023/12/19 08:35:24;;;;;;;121.80;54.57;;;;;;;;;;4413096;32;318663;-76
2023/12/19 08:37:53;;;;;;;146.80;68.07;;;;;;;;;;4413324;32;319659;-75
2023/12/19 08:40:21;;;;;;;93.50;45.57;;;;;;;;;;4401771;32;319362;-74
2023/12/19 08:42:48;;;;;;;81.17;43.53;;;;;;;;;;4413176;32;317916;-74
2023/12/19 08:45:16;;;;;;;97.43;49.33;;;;;;;;;;4403724;32;318674;-74
2023/12/19 08:47:44;;;;;;;102.97;50.70;;;;;;;;;;4412051;32;330052;-75
2023/12/19 08:50:12;;;;;;;91.63;47.30;;;;;;;;;;4401072;32;319467;-74
2023/12/19 08:52:40;;;;;;;93.87;45.33;;;;;;;;;;4411816;32;317726;-74
2023/12/19 08:55:09;;;;;;;87.97;44.23;;;;;;;;;;4402224;32;318254;-73
2023/12/19 08:57:39;;;;;;;100.17;48.70;;;;;;;;;;4411583;32;318818;-74
2023/12/19 09:00:16;;;;;;;90.10;48.93;;;;;;;;;;4401023;32;319398;-74
2023/12/19 09:02:44;;;;;;;92.67;44.57;;;;;;;;;;4413771;32;318795;-74
2023/12/19 09:05:12;;;;;;;113.83;52.67;;;;;;;;;;4404956;32;318489;-73
2023/12/19 09:07:39;;;;;;;115.30;57.20;;;;;;;;;;4415739;32;319558;-75
2023/12/19 09:10:07;;;;;;;114.87;55.17;;;;;;;;;;4403013;32;352928;-73
2023/12/19 09:12:34;;;;;;;112.43;55.27;;;;;;;;;;4415544;32;339866;-74
2023/12/19 09:15:03;;;;;;;132.67;59.70;;;;;;;;;;4402098;32;319693;-73
2023/12/19 09:17:30;;;;;;;132.20;60.87;;;;;;;;;;4420515;32;319011;-74
2023/12/19 09:19:56;;;;;;;131.67;63.17;;;;;;;;;;4406132;32;319480;-72
2023/12/19 09:22:23;;;;;;;122.60;59.20;;;;;;;;;;4413367;32;319390;-73
2023/12/19 09:24:50;;;;;;;119.33;59.90;;;;;;;;;;4414978;32;319320;-75
2023/12/19 09:27:17;;;;;;;131.20;64.23;;;;;;;;;;4405448;32;319439;-73
2023/12/19 09:29:44;;;;;;;110.70;58.60;;;;;;;;;;4414561;32;318732;-73
2023/12/19 09:32:14;;;;;;;122.63;59.63;;;;;;;;;;4403509;32;319724;-73
2023/12/19 09:34:41;;;;;;;108.63;55.77;;;;;;;;;;4414591;32;319639;-75
2023/12/19 09:37:08;;;;;;;109.33;56.27;;;;;;;;;;4404170;32;319110;-78
2023/12/19 09:39:35;;;;;;;110.33;55.70;;;;;;;;;;4413240;32;361116;-75
2023/12/19 09:42:04;;;;;;;104.43;55.77;;;;;;;;;;4402567;32;343655;-75
2023/12/19 09:44:32;;;;;;;108.10;54.30;;;;;;;;;;4413930;32;319480;-73
2023/12/19 09:46:58;;;;;;;127.10;58.77;;;;;;;;;;4405721;32;319870;-72
2023/12/19 09:49:28;;;;;;;134.57;59.77;;;;;;;;;;4413401;32;318723;-73
2023/12/19 09:51:58;;;;;;;120.93;59.80;;;;;;;;;;4414416;32;318678;-75
2023/12/19 09:54:25;;;;;;;130.27;65.90;;;;;;;;;;4400517;32;420329;-73
2023/12/19 09:56:53;;;;;;;132.60;66.20;;;;;;;;;;4414769;32;319935;-73
2023/12/19 09:59:20;;;;;;;129.90;63.17;;;;;;;;;;4404945;32;319713;-74
2023/12/19 10:01:48;;;;;;;119.10;55.50;;;;;;;;;;4413419;32;318896;-76
2023/12/19 10:04:16;;;;;;;98.07;47.97;;;;;;;;;;4402369;32;318774;-76
2023/12/19 10:06:54;;;;;;;104.00;51.03;;;;;;;;;;4413715;32;318539;-76
2023/12/19 10:09:21;;;;;;;122.70;60.77;;;;;;;;;;4400666;32;418835;-73
2023/12/19 10:12:02;;;;;;;112.53;57.80;;;;;;;;;;4412958;32;319155;-73
2023/12/19 10:14:28;;;;;;;126.97;60.07;;;;;;;;;;4399367;32;420312;-76
2023/12/19 10:16:55;;;;;;;113.30;57.80;;;;;;;;;;4414007;32;320205;-72
2023/12/19 10:19:26;;;;;;;100.63;50.47;;;;;;;;;;4400853;32;418427;-73
2023/12/19 10:22:05;;;;;;;103.50;52.73;;;;;;;;;;4413560;32;321300;-73
2023/12/19 10:24:32;;;;;;;110.87;55.07;;;;;;;;;;4400516;32;417868;-74
2023/12/19 10:27:00;;;;;;;123.33;57.80;;;;;;;;;;4403430;32;319338;-73
2023/12/19 10:29:28;;;;;;;114.80;59.30;;;;;;;;;;4414950;32;319368;-73
2023/12/19 10:31:55;;;;;;;127.37;58.53;;;;;;;;;;4414669;32;318492;-72
2023/12/19 10:34:22;;;;;;;126.63;60.90;;;;;;;;;;4401808;32;319505;-72
2023/12/19 10:36:49;;;;;;;136.23;66.03;;;;;;;;;;4413843;32;319497;-72
2023/12/19 10:39:19;;;;;;;156.57;77.37;;;;;;;;;;4403736;32;319552;-72
2023/12/19 10:41:46;;;;;;;152.90;75.30;;;;;;;;;;4412765;32;318517;-72
2023/12/19 10:44:13;;;;;;;148.43;66.87;;;;;;;;;;4401484;32;319420;-74
2023/12/19 10:46:41;;;;;;;112.83;57.17;;;;;;;;;;4415080;32;318815;-75
2023/12/19 10:49:08;;;;;;;124.37;56.13;;;;;;;;;;4403416;32;325871;-74
2023/12/19 10:51:36;;;;;;;129.67;63.27;;;;;;;;;;4414614;32;319254;-73
2023/12/19 10:54:09;;;;;;;151.37;72.53;;;;;;;;;;4403326;32;319837;-74
2023/12/19 10:56:58;;;;;;;158.47;77.87;;;;;;;;;;4416196;32;318673;-72
2023/12/19 10:59:31;;;;;;;157.23;74.17;;;;;;;;;;4399470;32;419894;-72
2023/12/19 11:02:03;;;;;;;137.90;71.33;;;;;;;;;;4404812;32;319358;-72
2023/12/19 11:04:33;;;;;;;175.00;75.93;;;;;;;;;;4414311;32;319876;-72
2023/12/19 11:07:04;;;;;;;288.77;125.80;;;;;;;;;;4404412;32;319397;-74
2023/12/19 11:09:35;;;;;;;162.13;81.67;;;;;;;;;;4414263;32;320665;-72
2023/12/19 11:12:06;;;;;;;154.67;69.43;;;;;;;;;;4402164;32;329350;-72
2023/12/19 11:14:33;;;;;;;179.13;76.50;;;;;;;;;;4414138;32;318519;-72
2023/12/19 11:17:09;;;;;;;176.90;82.83;;;;;;;;;;4404144;32;319412;-72
2023/12/19 11:19:45;;;;;;;172.43;78.23;;;;;;;;;;4413373;32;319614;-72
2023/12/19 11:22:19;;;;;;;170.87;80.57;;;;;;;;;;4402291;32;319202;-72
2023/12/19 11:24:51;;;;;;;155.83;78.23;;;;;;;;;;4413809;32;318991;-71
2023/12/19 11:27:22;;;;;;;160.03;81.20;;;;;;;;;;4403950;32;319671;-72
2023/12/19 11:29:51;;;;;;;160.53;82.33;;;;;;;;;;4413750;32;333395;-72
2023/12/19 11:32:41;;;;;;;175.00;79.90;;;;;;;;;;4402242;32;319551;-72
2023/12/19 11:35:10;;;;;;;165.57;80.77;;;;;;;;;;4403295;32;319691;-72
2023/12/19 11:37:37;;;;;;;163.57;77.20;;;;;;;;;;4413666;32;318825;-72
2023/12/19 11:40:05;;;;;;;168.60;84.70;;;;;;;;;;4404014;32;319231;-73
2023/12/19 11:42:46;;;;;;;195.23;96.73;;;;;;;;;;4411621;32;359552;-73
2023/12/19 11:45:40;;;;;;;197.10;96.87;;;;;;;;;;4403194;32;319423;-72
2023/12/19 11:48:38;;;;;;;283.03;146.83;;;;;;;;;;4401585;32;319473;-71
2023/12/19 11:51:07;;;;;;;180.63;85.17;;;;;;;;;;4403787;32;323077;-72
2023/12/19 11:53:34;;;;;;;181.67;81.83;;;;;;;;;;4412429;32;341583;-72
2023/12/19 11:56:08;;;;;;;178.07;82.40;;;;;;;;;;4400383;32;350324;-72
2023/12/19 11:58:37;;;;;;;172.93;84.20;;;;;;;;;;4414357;32;319637;-72
2023/12/19 12:01:08;;;;;;;197.70;95.40;;;;;;;;;;4402444;32;319149;-72
2023/12/19 12:03:36;;;;;;;190.43;88.33;;;;;;;;;;4412849;32;319593;-72
2023/12/19 12:06:03;;;;;;;185.83;89.63;;;;;;;;;;4401525;32;319302;-72
2023/12/19 12:08:31;;;;;;;206.07;94.87;;;;;;;;;;4411309;32;319485;-72
2023/12/19 12:11:00;;;;;;;197.63;91.43;;;;;;;;;;4403770;32;319444;-72
2023/12/19 12:13:28;;;;;;;203.33;94.27;;;;;;;;;;4412437;32;319433;-72
2023/12/19 12:15:56;;;;;;;214.63;96.73;;;;;;;;;;4416099;32;319610;-72
2023/12/19 12:18:24;;;;;;;198.47;96.03;;;;;;;;;;4398009;32;418057;-72
2023/12/19 12:20:51;;;;;;;196.10;94.87;;;;;;;;;;4412411;32;322523;-72
2023/12/19 12:23:19;;;;;;;265.43;118.10;;;;;;;;;;4404110;32;319717;-73
2023/12/19 12:25:55;;;;;;;222.27;105.97;;;;;;;;;;4413717;32;320660;-72
2023/12/19 12:28:25;;;;;;;248.03;117.37;;;;;;;;;;4399011;32;421468;-72
2023/12/19 12:30:54;;;;;;;236.00;114.73;;;;;;;;;;4412643;32;320659;-72
2023/12/19 12:33:24;;;;;;;227.13;106.93;;;;;;;;;;4402482;32;320624;-73
2023/12/19 12:35:51;;;;;;;232.57;108.30;;;;;;;;;;4413628;32;319755;-73
2023/12/19 12:38:19;;;;;;;233.40;108.63;;;;;;;;;;4401922;32;320538;-72
2023/12/19 12:40:58;;;;;;;232.73;107.33;;;;;;;;;;4415224;32;320735;-72
2023/12/19 12:43:33;;;;;;;220.97;104.30;;;;;;;;;;4402534;32;421941;-73
2023/12/19 12:46:08;;;;;;;211.97;103.93;;;;;;;;;;4402864;32;320356;-71
2023/12/19 12:48:37;;;;;;;220.03;99.07;;;;;;;;;;4421316;32;319649;-72
2023/12/19 12:51:05;;;;;;;215.23;98.40;;;;;;;;;;4406570;32;319343;-72
2023/12/19 12:53:33;;;;;;;217.70;98.80;;;;;;;;;;4414929;32;318613;-72
2023/12/19 12:56:13;;;;;;;221.37;99.37;;;;;;;;;;4406010;32;318821;-72
2023/12/19 12:58:41;;;;;;;219.67;96.13;;;;;;;;;;4415445;32;319484;-72
2023/12/19 13:01:09;;;;;;;204.30;95.97;;;;;;;;;;4405894;32;319522;-72
2023/12/19 13:03:37;;;;;;;211.27;95.83;;;;;;;;;;4414719;32;319466;-72
2023/12/19 13:06:05;;;;;;;228.50;100.50;;;;;;;;;;4403780;32;319323;-72
2023/12/19 13:08:34;;;;;;;231.10;100.00;;;;;;;;;;4415578;32;320790;-72
2023/12/19 13:11:03;;;;;;;227.10;103.40;;;;;;;;;;4402457;32;352566;-71
2023/12/19 13:13:30;;;;;;;211.00;99.27;;;;;;;;;;4414857;32;320201;-73
2023/12/19 13:15:57;;;;;;;209.70;99.00;;;;;;;;;;4405118;32;319181;-72
2023/12/19 13:18:24;;;;;;;239.47;106.63;;;;;;;;;;4413455;32;319021;-72
2023/12/19 13:20:53;;;;;;;243.67;107.40;;;;;;;;;;4415885;32;320366;-73
2023/12/19 13:23:20;;;;;;;281.20;119.17;;;;;;;;;;4406160;32;320616;-73
2023/12/19 13:25:48;;;;;;;263.47;117.77;;;;;;;;;;4414522;32;320378;-72
2023/12/19 13:28:15;;;;;;;281.90;123.93;;;;;;;;;;4402848;32;320600;-72
2023/12/19 13:30:42;;;;;;;279.87;125.27;;;;;;;;;;4413851;32;320098;-70
2023/12/19 13:33:09;;;;;;;269.93;120.63;;;;;;;;;;4404175;32;357819;-72
2023/12/19 13:35:37;;;;;;;280.23;128.33;;;;;;;;;;4414417;32;320480;-72
2023/12/19 13:38:05;;;;;;;284.67;124.27;;;;;;;;;;4405048;32;320495;-71
2023/12/19 13:40:32;;;;;;;261.10;118.50;;;;;;;;;;4414807;32;320581;-73
2023/12/19 13:43:02;;;;;;;283.00;123.53;;;;;;;;;;4405461;32;320402;-72
2023/12/19 13:45:30;;;;;;;326.33;134.20;;;;;;;;;;4415541;32;320503;-72
2023/12/19 13:48:01;;;;;;;314.57;133.83;;;;;;;;;;4405567;32;320529;-72
2023/12/19 13:50:29;;;;;;;275.83;124.80;;;;;;;;;;4412328;32;320559;-72
2023/12/19 13:52:56;;;;;;;286.03;129.80;;;;;;;;;;4414196;32;320518;-72
2023/12/19 13:55:25;;;;;;;343.80;136.13;;;;;;;;;;4400403;32;419163;-72
2023/12/19 13:57:54;;;;;;;292.73;125.17;;;;;;;;;;4414237;32;320383;-72
2023/12/19 14:00:21;;;;;;;321.90;131.70;;;;;;;;;;4402927;32;320489;-73
2023/12/19 14:02:48;;;;;;;308.07;125.17;;;;;;;;;;4414850;32;320858;-72